sensor_id;sensor_type;location;lat;lon;timestamp;temperature;humidity
4509;DHT22;2267;48.816;9.230;2023-06-14T00:00:07;22.70;56.90
4509;DHT22;2267;48.816;9.230;2023-06-14T00:02:34;22.60;56.00
4509;DHT22;2267;48.816;9.230;2023-06-14T00:05:01;22.60;56.90
4509;DHT22;2267;48.816;9.230;2023-06-14T00:07:37;22.60;57.30
4509;DHT22;2267;48.816;9.230;2023-06-14T00:10:05;22.70;57.60
4509;DHT22;2267;48.816;9.230;2023-06-14T00:12:32;22.60;56.80
4509;DHT22;2267;48.816;9.230;2023-06-14T00:14:59;22.40;56.50
4509;DHT22;2267;48.816;9.230;2023-06-14T00:17:28;22.30;56.50
4509;DHT22;2267;48.816;9.230;2023-06-14T00:19:58;22.20;57.10
4509;DHT22;2267;48.816;9.230;2023-06-14T00:22:26;22.30;57.10
4509;DHT22;2267;48.816;9.230;2023-06-14T00:24:55;22.30;56.40
4509;DHT22;2267;48.816;9.230;2023-06-14T00:27:22;22.30;56.40
4509;DHT22;2267;48.816;9.230;2023-06-14T00:29:49;22.30;56.10
4509;DHT22;2267;48.816;9.230;2023-06-14T00:32:16;22.30;56.30
4509;DHT22;2267;48.816;9.230;2023-06-14T00:34:42;22.30;56.30
4509;DHT22;2267;48.816;9.230;2023-06-14T00:37:09;22.20;56.30
4509;DHT22;2267;48.816;9.230;2023-06-14T00:39:36;22.20;56.90
4509;DHT22;2267;48.816;9.230;2023-06-14T00:42:03;22.20;56.90
4509;DHT22;2267;48.816;9.230;2023-06-14T00:44:32;22.20;57.50
4509;DHT22;2267;48.816;9.230;2023-06-14T00:46:58;22.10;57.50
4509;DHT22;2267;48.816;9.230;2023-06-14T00:49:25;22.10;58.30
4509;DHT22;2267;48.816;9.230;2023-06-14T00:51:52;22.10;58.60
4509;DHT22;2267;48.816;9.230;2023-06-14T00:54:19;22.10;58.70
4509;DHT22;2267;48.816;9.230;2023-06-14T00:56:46;22.00;58.50
4509;DHT22;2267;48.816;9.230;2023-06-14T00:59:13;22.00;58.60
4509;DHT22;2267;48.816;9.230;2023-06-14T01:01:41;22.00;58.90
4509;DHT22;2267;48.816;9.230;2023-06-14T01:04:08;21.90;58.00
4509;DHT22;2267;48.816;9.230;2023-06-14T01:06:44;21.80;58.20
4509;DHT22;2267;48.816;9.230;2023-06-14T01:09:41;21.80;58.30
4509;DHT22;2267;48.816;9.230;2023-06-14T01:12:21;21.70;58.10
4509;DHT22;2267;48.816;9.230;2023-06-14T01:14:50;21.50;57.50
4509;DHT22;2267;48.816;9.230;2023-06-14T01:17:18;21.40;58.40
4509;DHT22;2267;48.816;9.230;2023-06-14T01:19:45;21.60;59.40
4509;DHT22;2267;48.816;9.230;2023-06-14T01:22:12;21.60;59.30
4509;DHT22;2267;48.816;9.230;2023-06-14T01:24:39;21.60;58.60
4509;DHT22;2267;48.816;9.230;2023-06-14T01:27:12;21.50;59.20
4509;DHT22;2267;48.816;9.230;2023-06-14T01:29:40;21.50;58.80
4509;DHT22;2267;48.816;9.230;2023-06-14T01:32:12;21.50;59.00
4509;DHT22;2267;48.816;9.230;2023-06-14T01:34:39;21.50;59.20
4509;DHT22;2267;48.816;9.230;2023-06-14T01:37:07;21.50;59.60
4509;DHT22;2267;48.816;9.230;2023-06-14T01:39:35;21.50;59.40
4509;DHT22;2267;48.816;9.230;2023-06-14T01:42:02;21.50;59.20
4509;DHT22;2267;48.816;9.230;2023-06-14T01:44:30;21.50;59.20
4509;DHT22;2267;48.816;9.230;2023-06-14T01:46:57;21.40;59.30
4509;DHT22;2267;48.816;9.230;2023-06-14T01:49:26;21.30;59.40
4509;DHT22;2267;48.816;9.230;2023-06-14T01:51:52;21.30;59.80
4509;DHT22;2267;48.816;9.230;2023-06-14T01:54:19;21.30;59.60
4509;DHT22;2267;48.816;9.230;2023-06-14T01:56:46;21.30;60.70
4509;DHT22;2267;48.816;9.230;2023-06-14T01:59:13;21.20;59.60
4509;DHT22;2267;48.816;9.230;2023-06-14T02:01:40;21.20;59.50
4509;DHT22;2267;48.816;9.230;2023-06-14T02:04:07;21.20;60.10
4509;DHT22;2267;48.816;9.230;2023-06-14T02:06:34;21.20;60.30
4509;DHT22;2267;48.816;9.230;2023-06-14T02:09:01;21.10;59.40
4509;DHT22;2267;48.816;9.230;2023-06-14T02:11:29;21.10;60.60
4509;DHT22;2267;48.816;9.230;2023-06-14T02:13:56;21.00;60.30
4509;DHT22;2267;48.816;9.230;2023-06-14T02:16:23;21.00;60.70
4509;DHT22;2267;48.816;9.230;2023-06-14T02:18:51;21.00;60.90
4509;DHT22;2267;48.816;9.230;2023-06-14T02:21:18;21.00;60.70
4509;DHT22;2267;48.816;9.230;2023-06-14T02:23:44;21.00;60.40
4509;DHT22;2267;48.816;9.230;2023-06-14T02:26:11;21.00;60.00
4509;DHT22;2267;48.816;9.230;2023-06-14T02:28:38;21.10;60.00
4509;DHT22;2267;48.816;9.230;2023-06-14T02:31:05;21.00;60.20
4509;DHT22;2267;48.816;9.230;2023-06-14T02:33:32;21.00;60.10
4509;DHT22;2267;48.816;9.230;2023-06-14T02:35:59;20.90;60.70
4509;DHT22;2267;48.816;9.230;2023-06-14T02:38:26;20.80;60.70
4509;DHT22;2267;48.816;9.230;2023-06-14T02:40:53;20.70;61.20
4509;DHT22;2267;48.816;9.230;2023-06-14T02:43:19;20.70;61.80
4509;DHT22;2267;48.816;9.230;2023-06-14T02:45:46;20.70;61.50
4509;DHT22;2267;48.816;9.230;2023-06-14T02:48:13;20.70;62.10
4509;DHT22;2267;48.816;9.230;2023-06-14T02:50:40;20.80;61.80
4509;DHT22;2267;48.816;9.230;2023-06-14T02:53:07;20.80;62.30
4509;DHT22;2267;48.816;9.230;2023-06-14T02:55:34;20.80;61.80
4509;DHT22;2267;48.816;9.230;2023-06-14T02:58:07;20.70;62.00
4509;DHT22;2267;48.816;9.230;2023-06-14T03:00:33;20.70;62.00
4509;DHT22;2267;48.816;9.230;2023-06-14T03:03:01;20.70;62.70
4509;DHT22;2267;48.816;9.230;2023-06-14T03:05:28;20.60;62.10
4509;DHT22;2267;48.816;9.230;2023-06-14T03:07:55;20.60;62.10
4509;DHT22;2267;48.816;9.230;2023-06-14T03:10:22;20.70;62.00
4509;DHT22;2267;48.816;9.230;2023-06-14T03:12:49;20.60;61.80
4509;DHT22;2267;48.816;9.230;2023-06-14T03:15:16;20.40;61.20
4509;DHT22;2267;48.816;9.230;2023-06-14T03:17:44;20.40;63.30
4509;DHT22;2267;48.816;9.230;2023-06-14T03:20:12;20.40;63.60
4509;DHT22;2267;48.816;9.230;2023-06-14T03:22:39;20.40;64.00
4509;DHT22;2267;48.816;9.230;2023-06-14T03:25:08;20.40;63.00
4509;DHT22;2267;48.816;9.230;2023-06-14T03:27:35;20.40;63.40
4509;DHT22;2267;48.816;9.230;2023-06-14T03:30:03;20.40;63.40
4509;DHT22;2267;48.816;9.230;2023-06-14T03:32:30;20.40;63.70
4509;DHT22;2267;48.816;9.230;2023-06-14T03:34:59;20.40;63.30
4509;DHT22;2267;48.816;9.230;2023-06-14T03:37:26;20.40;63.10
4509;DHT22;2267;48.816;9.230;2023-06-14T03:39:53;20.30;63.40
4509;DHT22;2267;48.816;9.230;2023-06-14T03:42:20;20.30;63.10
4509;DHT22;2267;48.816;9.230;2023-06-14T03:44:47;20.30;64.00
4509;DHT22;2267;48.816;9.230;2023-06-14T03:47:14;20.30;64.10
4509;DHT22;2267;48.816;9.230;2023-06-14T03:49:41;20.20;63.60
4509;DHT22;2267;48.816;9.230;2023-06-14T03:52:08;20.30;64.20
4509;DHT22;2267;48.816;9.230;2023-06-14T03:54:35;20.20;64.40
4509;DHT22;2267;48.816;9.230;2023-06-14T03:57:05;20.20;64.00
4509;DHT22;2267;48.816;9.230;2023-06-14T03:59:32;20.20;64.10
4509;DHT22;2267;48.816;9.230;2023-06-14T04:01:59;20.20;64.00
4509;DHT22;2267;48.816;9.230;2023-06-14T04:04:26;20.20;64.00
4509;DHT22;2267;48.816;9.230;2023-06-14T04:06:56;20.20;63.90
4509;DHT22;2267;48.816;9.230;2023-06-14T04:09:25;20.20;64.00
4509;DHT22;2267;48.816;9.230;2023-06-14T04:11:52;20.20;64.10
4509;DHT22;2267;48.816;9.230;2023-06-14T04:14:19;20.20;64.50
4509;DHT22;2267;48.816;9.230;2023-06-14T04:16:47;20.20;65.30
4509;DHT22;2267;48.816;9.230;2023-06-14T04:19:15;20.20;65.70
4509;DHT22;2267;48.816;9.230;2023-06-14T04:21:42;20.10;65.60
4509;DHT22;2267;48.816;9.230;2023-06-14T04:24:09;20.20;65.70
4509;DHT22;2267;48.816;9.230;2023-06-14T04:26:44;20.10;65.70
4509;DHT22;2267;48.816;9.230;2023-06-14T04:29:12;20.20;66.10
4509;DHT22;2267;48.816;9.230;2023-06-14T04:31:43;20.10;65.90
4509;DHT22;2267;48.816;9.230;2023-06-14T04:34:12;20.20;65.80
4509;DHT22;2267;48.816;9.230;2023-06-14T04:36:45;20.10;66.50
4509;DHT22;2267;48.816;9.230;2023-06-14T04:39:20;20.20;66.40
4509;DHT22;2267;48.816;9.230;2023-06-14T04:41:48;20.20;66.40
4509;DHT22;2267;48.816;9.230;2023-06-14T04:44:19;20.20;66.20
4509;DHT22;2267;48.816;9.230;2023-06-14T04:46:50;20.20;66.00
4509;DHT22;2267;48.816;9.230;2023-06-14T04:49:18;20.20;65.90
4509;DHT22;2267;48.816;9.230;2023-06-14T04:51:45;20.20;65.50
4509;DHT22;2267;48.816;9.230;2023-06-14T04:54:13;20.30;65.20
4509;DHT22;2267;48.816;9.230;2023-06-14T04:56:41;20.30;64.80
4509;DHT22;2267;48.816;9.230;2023-06-14T04:59:14;20.30;64.80
4509;DHT22;2267;48.816;9.230;2023-06-14T05:01:41;20.30;65.00
4509;DHT22;2267;48.816;9.230;2023-06-14T05:04:08;20.40;64.50
4509;DHT22;2267;48.816;9.230;2023-06-14T05:06:35;20.40;64.50
4509;DHT22;2267;48.816;9.230;2023-06-14T05:09:03;20.40;64.40
4509;DHT22;2267;48.816;9.230;2023-06-14T05:11:30;20.40;64.50
4509;DHT22;2267;48.816;9.230;2023-06-14T05:13:56;20.50;64.30
4509;DHT22;2267;48.816;9.230;2023-06-14T05:16:25;20.50;64.20
4509;DHT22;2267;48.816;9.230;2023-06-14T05:18:54;20.50;63.70
4509;DHT22;2267;48.816;9.230;2023-06-14T05:21:21;20.60;63.50
4509;DHT22;2267;48.816;9.230;2023-06-14T05:23:48;20.60;63.60
4509;DHT22;2267;48.816;9.230;2023-06-14T05:26:15;20.60;63.40
4509;DHT22;2267;48.816;9.230;2023-06-14T05:28:42;20.60;64.60
4509;DHT22;2267;48.816;9.230;2023-06-14T05:31:09;20.70;64.40
4509;DHT22;2267;48.816;9.230;2023-06-14T05:33:36;20.70;64.30
4509;DHT22;2267;48.816;9.230;2023-06-14T05:36:03;20.70;64.30
4509;DHT22;2267;48.816;9.230;2023-06-14T05:38:32;20.80;64.20
4509;DHT22;2267;48.816;9.230;2023-06-14T05:40:58;20.80;64.00
4509;DHT22;2267;48.816;9.230;2023-06-14T05:43:26;20.80;63.90
4509;DHT22;2267;48.816;9.230;2023-06-14T05:45:53;20.90;64.00
4509;DHT22;2267;48.816;9.230;2023-06-14T05:48:19;20.90;63.70
4509;DHT22;2267;48.816;9.230;2023-06-14T05:50:46;20.90;63.70
4509;DHT22;2267;48.816;9.230;2023-06-14T05:53:13;20.90;63.30
4509;DHT22;2267;48.816;9.230;2023-06-14T05:55:40;20.90;63.40
4509;DHT22;2267;48.816;9.230;2023-06-14T05:58:07;21.00;63.40
4509;DHT22;2267;48.816;9.230;2023-06-14T06:00:34;21.00;64.10
4509;DHT22;2267;48.816;9.230;2023-06-14T06:03:01;21.10;65.00
4509;DHT22;2267;48.816;9.230;2023-06-14T06:05:28;21.10;65.10
4509;DHT22;2267;48.816;9.230;2023-06-14T06:07:55;21.20;65.00
4509;DHT22;2267;48.816;9.230;2023-06-14T06:10:22;21.20;65.00
4509;DHT22;2267;48.816;9.230;2023-06-14T06:12:49;21.30;64.70
4509;DHT22;2267;48.816;9.230;2023-06-14T06:15:18;21.40;64.40
4509;DHT22;2267;48.816;9.230;2023-06-14T06:17:46;21.40;64.20
4509;DHT22;2267;48.816;9.230;2023-06-14T06:20:23;21.50;63.90
4509;DHT22;2267;48.816;9.230;2023-06-14T06:22:56;21.50;64.10
4509;DHT22;2267;48.816;9.230;2023-06-14T06:25:24;21.50;65.30
4509;DHT22;2267;48.816;9.230;2023-06-14T06:27:54;21.60;65.60
4509;DHT22;2267;48.816;9.230;2023-06-14T06:30:21;21.60;66.00
4509;DHT22;2267;48.816;9.230;2023-06-14T06:32:48;21.60;65.10
4509;DHT22;2267;48.816;9.230;2023-06-14T06:35:15;21.70;65.20
4509;DHT22;2267;48.816;9.230;2023-06-14T06:37:43;21.70;65.30
4509;DHT22;2267;48.816;9.230;2023-06-14T06:40:10;21.70;65.00
4509;DHT22;2267;48.816;9.230;2023-06-14T06:42:37;21.80;64.40
4509;DHT22;2267;48.816;9.230;2023-06-14T06:45:04;21.80;64.10
4509;DHT22;2267;48.816;9.230;2023-06-14T06:47:31;21.90;64.60
4509;DHT22;2267;48.816;9.230;2023-06-14T06:49:58;21.90;64.30
4509;DHT22;2267;48.816;9.230;2023-06-14T06:52:25;22.00;63.60
4509;DHT22;2267;48.816;9.230;2023-06-14T06:54:52;22.10;63.60
4509;DHT22;2267;48.816;9.230;2023-06-14T06:57:22;22.10;63.60
4509;DHT22;2267;48.816;9.230;2023-06-14T06:59:52;22.10;63.20
4509;DHT22;2267;48.816;9.230;2023-06-14T07:02:19;22.10;63.00
4509;DHT22;2267;48.816;9.230;2023-06-14T07:04:46;22.20;62.20
4509;DHT22;2267;48.816;9.230;2023-06-14T07:07:13;22.20;62.80
4509;DHT22;2267;48.816;9.230;2023-06-14T07:09:40;22.20;62.40
4509;DHT22;2267;48.816;9.230;2023-06-14T07:12:08;22.20;62.20
4509;DHT22;2267;48.816;9.230;2023-06-14T07:14:35;22.20;62.30
4509;DHT22;2267;48.816;9.230;2023-06-14T07:17:02;22.20;62.10
4509;DHT22;2267;48.816;9.230;2023-06-14T07:19:29;22.30;62.30
4509;DHT22;2267;48.816;9.230;2023-06-14T07:21:57;22.30;62.00
4509;DHT22;2267;48.816;9.230;2023-06-14T07:24:24;22.30;62.10
4509;DHT22;2267;48.816;9.230;2023-06-14T07:26:51;22.30;61.50
4509;DHT22;2267;48.816;9.230;2023-06-14T07:29:18;22.30;61.70
4509;DHT22;2267;48.816;9.230;2023-06-14T07:31:46;22.30;61.60
4509;DHT22;2267;48.816;9.230;2023-06-14T07:34:13;22.40;61.40
4509;DHT22;2267;48.816;9.230;2023-06-14T07:36:40;22.40;61.50
4509;DHT22;2267;48.816;9.230;2023-06-14T07:39:06;22.40;61.30
4509;DHT22;2267;48.816;9.230;2023-06-14T07:41:33;22.40;61.20
4509;DHT22;2267;48.816;9.230;2023-06-14T07:44:00;22.40;60.20
4509;DHT22;2267;48.816;9.230;2023-06-14T07:46:27;22.40;60.40
4509;DHT22;2267;48.816;9.230;2023-06-14T07:48:54;22.40;60.10
4509;DHT22;2267;48.816;9.230;2023-06-14T07:51:21;22.30;59.60
4509;DHT22;2267;48.816;9.230;2023-06-14T07:53:49;22.30;60.00
4509;DHT22;2267;48.816;9.230;2023-06-14T07:56:16;22.20;60.80
4509;DHT22;2267;48.816;9.230;2023-06-14T07:58:43;22.20;61.20
4509;DHT22;2267;48.816;9.230;2023-06-14T08:01:10;22.30;61.30
4509;DHT22;2267;48.816;9.230;2023-06-14T08:03:38;22.30;61.30
4509;DHT22;2267;48.816;9.230;2023-06-14T08:06:06;22.40;61.50
4509;DHT22;2267;48.816;9.230;2023-06-14T08:08:33;22.40;61.30
4509;DHT22;2267;48.816;9.230;2023-06-14T08:11:00;22.40;61.20
4509;DHT22;2267;48.816;9.230;2023-06-14T08:13:27;22.50;61.70
4509;DHT22;2267;48.816;9.230;2023-06-14T08:15:54;22.50;62.00
4509;DHT22;2267;48.816;9.230;2023-06-14T08:18:23;22.60;61.70
4509;DHT22;2267;48.816;9.230;2023-06-14T08:20:50;22.60;61.80
4509;DHT22;2267;48.816;9.230;2023-06-14T08:23:18;22.60;61.00
4509;DHT22;2267;48.816;9.230;2023-06-14T08:25:47;22.70;61.30
4509;DHT22;2267;48.816;9.230;2023-06-14T08:28:14;22.70;61.30
4509;DHT22;2267;48.816;9.230;2023-06-14T08:30:42;22.70;61.70
4509;DHT22;2267;48.816;9.230;2023-06-14T08:33:09;22.70;61.40
4509;DHT22;2267;48.816;9.230;2023-06-14T08:35:43;22.70;61.20
4509;DHT22;2267;48.816;9.230;2023-06-14T08:38:11;22.80;60.90
4509;DHT22;2267;48.816;9.230;2023-06-14T08:40:39;22.80;60.70
4509;DHT22;2267;48.816;9.230;2023-06-14T08:43:07;22.80;59.60
4509;DHT22;2267;48.816;9.230;2023-06-14T08:45:35;22.80;60.20
4509;DHT22;2267;48.816;9.230;2023-06-14T08:48:02;22.90;59.80
4509;DHT22;2267;48.816;9.230;2023-06-14T08:50:30;22.90;59.80
4509;DHT22;2267;48.816;9.230;2023-06-14T08:53:01;22.90;60.20
4509;DHT22;2267;48.816;9.230;2023-06-14T08:55:31;22.90;60.40
4509;DHT22;2267;48.816;9.230;2023-06-14T08:58:02;22.90;60.60
4509;DHT22;2267;48.816;9.230;2023-06-14T09:00:31;22.90;59.30
4509;DHT22;2267;48.816;9.230;2023-06-14T09:03:00;23.00;59.60
4509;DHT22;2267;48.816;9.230;2023-06-14T09:05:28;23.00;59.40
4509;DHT22;2267;48.816;9.230;2023-06-14T09:07:55;23.00;58.80
4509;DHT22;2267;48.816;9.230;2023-06-14T09:10:31;23.00;58.10
4509;DHT22;2267;48.816;9.230;2023-06-14T09:13:04;23.00;58.70
4509;DHT22;2267;48.816;9.230;2023-06-14T09:15:31;23.10;59.30
4509;DHT22;2267;48.816;9.230;2023-06-14T09:18:01;23.10;59.00
4509;DHT22;2267;48.816;9.230;2023-06-14T09:20:30;23.20;59.60
4509;DHT22;2267;48.816;9.230;2023-06-14T09:22:58;23.20;58.70
4509;DHT22;2267;48.816;9.230;2023-06-14T09:25:25;23.20;58.60
4509;DHT22;2267;48.816;9.230;2023-06-14T09:28:07;23.30;58.40
4509;DHT22;2267;48.816;9.230;2023-06-14T09:30:39;23.30;58.80
4509;DHT22;2267;48.816;9.230;2023-06-14T09:33:06;23.30;58.90
4509;DHT22;2267;48.816;9.230;2023-06-14T09:35:34;23.40;58.70
4509;DHT22;2267;48.816;9.230;2023-06-14T09:38:01;23.40;57.70
4509;DHT22;2267;48.816;9.230;2023-06-14T09:40:28;23.40;58.60
4509;DHT22;2267;48.816;9.230;2023-06-14T09:42:55;23.50;58.90
4509;DHT22;2267;48.816;9.230;2023-06-14T09:45:25;23.50;58.30
4509;DHT22;2267;48.816;9.230;2023-06-14T09:47:56;23.60;58.00
4509;DHT22;2267;48.816;9.230;2023-06-14T09:50:34;23.60;56.90
4509;DHT22;2267;48.816;9.230;2023-06-14T09:53:06;23.60;56.10
4509;DHT22;2267;48.816;9.230;2023-06-14T09:55:37;23.60;56.00
4509;DHT22;2267;48.816;9.230;2023-06-14T09:58:06;23.60;56.20
4509;DHT22;2267;48.816;9.230;2023-06-14T10:00:35;23.70;56.30
4509;DHT22;2267;48.816;9.230;2023-06-14T10:03:13;23.80;56.30
4509;DHT22;2267;48.816;9.230;2023-06-14T10:05:43;23.80;54.00
4509;DHT22;2267;48.816;9.230;2023-06-14T10:08:18;23.90;54.70
4509;DHT22;2267;48.816;9.230;2023-06-14T10:10:45;24.00;54.40
4509;DHT22;2267;48.816;9.230;2023-06-14T10:13:14;24.00;55.00
4509;DHT22;2267;48.816;9.230;2023-06-14T10:21:21;24.40;55.40
4509;DHT22;2267;48.816;9.230;2023-06-14T10:23:50;24.50;56.50
4509;DHT22;2267;48.816;9.230;2023-06-14T10:26:21;24.50;55.90
4509;DHT22;2267;48.816;9.230;2023-06-14T10:29:07;24.60;55.70
4509;DHT22;2267;48.816;9.230;2023-06-14T10:31:46;24.50;55.50
4509;DHT22;2267;48.816;9.230;2023-06-14T10:34:24;24.50;55.20
4509;DHT22;2267;48.816;9.230;2023-06-14T10:39:30;24.50;54.90
4509;DHT22;2267;48.816;9.230;2023-06-14T10:41:57;23.90;53.70
4509;DHT22;2267;48.816;9.230;2023-06-14T10:46:55;24.70;54.20
4509;DHT22;2267;48.816;9.230;2023-06-14T11:04:40;24.60;53.80
4509;DHT22;2267;48.816;9.230;2023-06-14T11:07:47;24.60;53.50
4509;DHT22;2267;48.816;9.230;2023-06-14T11:10:40;24.70;53.50
4509;DHT22;2267;48.816;9.230;2023-06-14T11:13:07;24.80;53.30
4509;DHT22;2267;48.816;9.230;2023-06-14T11:15:36;25.00;53.70
4509;DHT22;2267;48.816;9.230;2023-06-14T11:18:05;25.10;53.60
4509;DHT22;2267;48.816;9.230;2023-06-14T11:20:34;25.30;53.10
4509;DHT22;2267;48.816;9.230;2023-06-14T11:23:02;25.40;52.30
4509;DHT22;2267;48.816;9.230;2023-06-14T11:25:29;25.40;52.80
4509;DHT22;2267;48.816;9.230;2023-06-14T11:27:57;25.60;52.10
4509;DHT22;2267;48.816;9.230;2023-06-14T11:30:25;25.70;51.70
4509;DHT22;2267;48.816;9.230;2023-06-14T11:32:53;25.90;50.50
4509;DHT22;2267;48.816;9.230;2023-06-14T11:35:25;26.10;50.80
4509;DHT22;2267;48.816;9.230;2023-06-14T11:37:53;26.20;50.50
4509;DHT22;2267;48.816;9.230;2023-06-14T11:40:24;26.30;50.30
4509;DHT22;2267;48.816;9.230;2023-06-14T11:42:58;26.40;49.90
4509;DHT22;2267;48.816;9.230;2023-06-14T11:45:26;26.50;49.20
4509;DHT22;2267;48.816;9.230;2023-06-14T11:47:58;26.70;49.40
4509;DHT22;2267;48.816;9.230;2023-06-14T11:50:25;26.80;50.40
4509;DHT22;2267;48.816;9.230;2023-06-14T11:52:56;27.00;49.80
4509;DHT22;2267;48.816;9.230;2023-06-14T11:55:24;27.10;49.00
4509;DHT22;2267;48.816;9.230;2023-06-14T11:57:53;27.20;48.70
4509;DHT22;2267;48.816;9.230;2023-06-14T12:00:25;27.10;48.80
4509;DHT22;2267;48.816;9.230;2023-06-14T12:02:55;27.00;48.40
4509;DHT22;2267;48.816;9.230;2023-06-14T12:05:24;26.80;48.20
4509;DHT22;2267;48.816;9.230;2023-06-14T12:08:00;26.90;48.90
4509;DHT22;2267;48.816;9.230;2023-06-14T12:10:27;27.00;48.60
4509;DHT22;2267;48.816;9.230;2023-06-14T12:12:59;27.10;49.20
4509;DHT22;2267;48.816;9.230;2023-06-14T12:15:29;27.30;48.60
4509;DHT22;2267;48.816;9.230;2023-06-14T12:17:57;27.30;47.60
4509;DHT22;2267;48.816;9.230;2023-06-14T12:20:32;27.40;47.60
4509;DHT22;2267;48.816;9.230;2023-06-14T12:22:59;27.50;46.70
4509;DHT22;2267;48.816;9.230;2023-06-14T12:27:55;27.60;47.80
4509;DHT22;2267;48.816;9.230;2023-06-14T12:30:22;27.70;47.00
4509;DHT22;2267;48.816;9.230;2023-06-14T12:32:49;27.80;47.70
4509;DHT22;2267;48.816;9.230;2023-06-14T12:35:18;28.00;48.20
4509;DHT22;2267;48.816;9.230;2023-06-14T12:37:46;28.00;47.70
4509;DHT22;2267;48.816;9.230;2023-06-14T12:40:13;28.10;47.20
4509;DHT22;2267;48.816;9.230;2023-06-14T12:42:41;28.20;47.10
4509;DHT22;2267;48.816;9.230;2023-06-14T12:45:08;28.20;45.70
4509;DHT22;2267;48.816;9.230;2023-06-14T12:47:36;28.30;46.60
4509;DHT22;2267;48.816;9.230;2023-06-14T12:50:03;28.50;46.30
4509;DHT22;2267;48.816;9.230;2023-06-14T12:52:30;28.60;46.80
4509;DHT22;2267;48.816;9.230;2023-06-14T12:54:57;28.80;45.90
4509;DHT22;2267;48.816;9.230;2023-06-14T12:57:23;29.00;45.10
4509;DHT22;2267;48.816;9.230;2023-06-14T12:59:51;29.00;46.20
4509;DHT22;2267;48.816;9.230;2023-06-14T13:02:19;29.10;46.00
4509;DHT22;2267;48.816;9.230;2023-06-14T13:04:51;29.10;45.00
4509;DHT22;2267;48.816;9.230;2023-06-14T13:07:18;29.30;45.80
4509;DHT22;2267;48.816;9.230;2023-06-14T13:09:45;29.40;45.70
4509;DHT22;2267;48.816;9.230;2023-06-14T13:12:12;29.50;45.80
4509;DHT22;2267;48.816;9.230;2023-06-14T13:14:40;29.60;46.00
4509;DHT22;2267;48.816;9.230;2023-06-14T13:17:10;29.70;46.20
4509;DHT22;2267;48.816;9.230;2023-06-14T13:19:37;29.80;46.20
4509;DHT22;2267;48.816;9.230;2023-06-14T13:22:04;29.80;45.90
4509;DHT22;2267;48.816;9.230;2023-06-14T13:24:31;29.80;45.30
4509;DHT22;2267;48.816;9.230;2023-06-14T13:26:58;29.90;44.80
4509;DHT22;2267;48.816;9.230;2023-06-14T13:29:26;29.80;44.30
4509;DHT22;2267;48.816;9.230;2023-06-14T13:31:53;29.90;45.00
4509;DHT22;2267;48.816;9.230;2023-06-14T13:34:20;30.00;44.70
4509;DHT22;2267;48.816;9.230;2023-06-14T13:36:49;30.10;44.60
4509;DHT22;2267;48.816;9.230;2023-06-14T13:39:16;30.20;45.20
4509;DHT22;2267;48.816;9.230;2023-06-14T13:41:43;30.30;44.90
4509;DHT22;2267;48.816;9.230;2023-06-14T13:44:09;30.40;44.30
4509;DHT22;2267;48.816;9.230;2023-06-14T13:46:42;30.50;44.10
4509;DHT22;2267;48.816;9.230;2023-06-14T13:49:10;30.60;44.40
4509;DHT22;2267;48.816;9.230;2023-06-14T13:51:38;30.70;44.30
4509;DHT22;2267;48.816;9.230;2023-06-14T13:54:05;30.80;44.50
4509;DHT22;2267;48.816;9.230;2023-06-14T13:56:32;30.90;44.40
4509;DHT22;2267;48.816;9.230;2023-06-14T13:58:59;31.00;44.10
4509;DHT22;2267;48.816;9.230;2023-06-14T14:01:27;31.00;44.10
4509;DHT22;2267;48.816;9.230;2023-06-14T14:03:55;31.00;44.20
4509;DHT22;2267;48.816;9.230;2023-06-14T14:06:22;30.90;44.20
4509;DHT22;2267;48.816;9.230;2023-06-14T14:08:49;30.60;44.00
4509;DHT22;2267;48.816;9.230;2023-06-14T14:11:16;30.30;44.10
4509;DHT22;2267;48.816;9.230;2023-06-14T14:13:43;30.10;44.20
4509;DHT22;2267;48.816;9.230;2023-06-14T14:16:10;30.00;44.80
4509;DHT22;2267;48.816;9.230;2023-06-14T14:18:37;30.10;45.10
4509;DHT22;2267;48.816;9.230;2023-06-14T14:21:06;30.30;44.70
4509;DHT22;2267;48.816;9.230;2023-06-14T14:23:33;30.40;44.60
4509;DHT22;2267;48.816;9.230;2023-06-14T14:26:00;30.50;44.50
4509;DHT22;2267;48.816;9.230;2023-06-14T14:28:31;30.50;44.20
4509;DHT22;2267;48.816;9.230;2023-06-14T14:30:59;30.50;42.70
4509;DHT22;2267;48.816;9.230;2023-06-14T14:33:26;30.50;43.80
4509;DHT22;2267;48.816;9.230;2023-06-14T14:35:53;30.50;44.60
4509;DHT22;2267;48.816;9.230;2023-06-14T14:38:19;30.30;43.50
4509;DHT22;2267;48.816;9.230;2023-06-14T14:40:47;30.10;43.90
4509;DHT22;2267;48.816;9.230;2023-06-14T14:43:13;29.90;43.60
4509;DHT22;2267;48.816;9.230;2023-06-14T14:45:40;29.90;43.80
4509;DHT22;2267;48.816;9.230;2023-06-14T14:48:07;29.90;43.40
4509;DHT22;2267;48.816;9.230;2023-06-14T14:50:34;30.00;44.00
4509;DHT22;2267;48.816;9.230;2023-06-14T14:53:01;30.10;44.10
4509;DHT22;2267;48.816;9.230;2023-06-14T14:55:28;30.20;44.20
4509;DHT22;2267;48.816;9.230;2023-06-14T14:57:54;30.20;44.00
4509;DHT22;2267;48.816;9.230;2023-06-14T15:00:21;30.20;44.20
4509;DHT22;2267;48.816;9.230;2023-06-14T15:02:48;30.30;44.00
4509;DHT22;2267;48.816;9.230;2023-06-14T15:05:15;30.30;43.90
4509;DHT22;2267;48.816;9.230;2023-06-14T15:07:42;30.30;43.80
4509;DHT22;2267;48.816;9.230;2023-06-14T15:10:09;30.20;44.00
4509;DHT22;2267;48.816;9.230;2023-06-14T15:12:36;30.10;43.80
4509;DHT22;2267;48.816;9.230;2023-06-14T15:15:03;30.20;44.00
4509;DHT22;2267;48.816;9.230;2023-06-14T15:17:30;30.20;44.40
4509;DHT22;2267;48.816;9.230;2023-06-14T15:19:57;30.20;43.90
4509;DHT22;2267;48.816;9.230;2023-06-14T15:22:24;30.10;44.10
4509;DHT22;2267;48.816;9.230;2023-06-14T15:24:51;30.10;44.20
4509;DHT22;2267;48.816;9.230;2023-06-14T15:27:18;30.20;44.30
4509;DHT22;2267;48.816;9.230;2023-06-14T15:29:45;30.30;44.30
4509;DHT22;2267;48.816;9.230;2023-06-14T15:32:15;30.20;44.50
4509;DHT22;2267;48.816;9.230;2023-06-14T15:34:42;30.20;44.10
4509;DHT22;2267;48.816;9.230;2023-06-14T15:37:08;30.10;44.00
4509;DHT22;2267;48.816;9.230;2023-06-14T15:39:35;30.10;44.00
4509;DHT22;2267;48.816;9.230;2023-06-14T15:42:03;30.00;44.10
4509;DHT22;2267;48.816;9.230;2023-06-14T15:44:30;30.00;44.40
4509;DHT22;2267;48.816;9.230;2023-06-14T15:46:57;30.00;43.90
4509;DHT22;2267;48.816;9.230;2023-06-14T15:49:23;30.00;43.60
4509;DHT22;2267;48.816;9.230;2023-06-14T15:51:50;29.90;43.60
4509;DHT22;2267;48.816;9.230;2023-06-14T15:54:17;30.00;43.70
4509;DHT22;2267;48.816;9.230;2023-06-14T15:56:44;30.00;43.50
4509;DHT22;2267;48.816;9.230;2023-06-14T15:59:11;30.00;43.50
4509;DHT22;2267;48.816;9.230;2023-06-14T16:01:37;30.00;43.70
4509;DHT22;2267;48.816;9.230;2023-06-14T16:04:04;30.00;43.70
4509;DHT22;2267;48.816;9.230;2023-06-14T16:06:31;30.00;43.70
4509;DHT22;2267;48.816;9.230;2023-06-14T16:08:58;30.00;43.50
4509;DHT22;2267;48.816;9.230;2023-06-14T16:11:25;29.90;43.40
4509;DHT22;2267;48.816;9.230;2023-06-14T16:13:52;29.90;43.60
4509;DHT22;2267;48.816;9.230;2023-06-14T16:16:18;29.80;44.00
4509;DHT22;2267;48.816;9.230;2023-06-14T16:18:48;29.70;44.20
4509;DHT22;2267;48.816;9.230;2023-06-14T16:21:14;29.60;44.40
4509;DHT22;2267;48.816;9.230;2023-06-14T16:23:42;29.50;44.70
4509;DHT22;2267;48.816;9.230;2023-06-14T16:26:11;29.40;44.80
4509;DHT22;2267;48.816;9.230;2023-06-14T16:28:39;29.40;45.00
4509;DHT22;2267;48.816;9.230;2023-06-14T16:31:11;29.30;44.80
4509;DHT22;2267;48.816;9.230;2023-06-14T16:33:39;29.30;44.90
4509;DHT22;2267;48.816;9.230;2023-06-14T16:36:05;29.30;45.20